sensor_id;sensor_type;location;lat;lon;timestamp;pressure;altitude;pressure_sealevel;temperature;humidity
47556;BME280;33291;46.222;26.460;2023-03-31T00:01:59;96132.59;;;3.11;69.26
47556;BME280;33291;46.222;26.460;2023-03-31T00:04:27;96141.56;;;3.18;69.11
47556;BME280;33291;46.222;26.460;2023-03-31T00:06:52;96147.44;;;3.20;68.91
47556;BME280;33291;46.222;26.460;2023-03-31T00:09:19;96141.97;;;3.25;68.73
47556;BME280;33291;46.222;26.460;2023-03-31T00:11:47;96139.41;;;3.25;69.20
47556;BME280;33291;46.222;26.460;2023-03-31T00:14:14;96136.03;;;3.24;69.29
47556;BME280;33291;46.222;26.460;2023-03-31T00:16:40;96133.66;;;3.21;69.70
47556;BME280;33291;46.222;26.460;2023-03-31T00:19:06;96128.00;;;3.16;69.47
47556;BME280;33291;46.222;26.460;2023-03-31T00:21:34;96109.84;;;3.05;69.84
47556;BME280;33291;46.222;26.460;2023-03-31T00:24:09;96130.25;;;3.20;70.10
47556;BME280;33291;46.222;26.460;2023-03-31T00:26:35;96123.25;;;3.23;69.68
47556;BME280;33291;46.222;26.460;2023-03-31T00:29:02;96120.56;;;3.24;69.87
47556;BME280;33291;46.222;26.460;2023-03-31T00:31:28;96127.19;;;3.28;69.86
47556;BME280;33291;46.222;26.460;2023-03-31T00:33:54;96130.25;;;3.20;69.88
47556;BME280;33291;46.222;26.460;2023-03-31T00:36:21;96125.00;;;3.22;69.38
47556;BME280;33291;46.222;26.460;2023-03-31T00:38:58;96111.31;;;3.22;68.92
47556;BME280;33291;46.222;26.460;2023-03-31T00:41:24;96121.19;;;3.28;69.78
47556;BME280;33291;46.222;26.460;2023-03-31T00:44:13;96095.13;;;3.32;70.06
47556;BME280;33291;46.222;26.460;2023-03-31T00:46:55;96101.13;;;3.33;70.03
47556;BME280;33291;46.222;26.460;2023-03-31T00:49:31;96084.34;;;3.27;69.21
47556;BME280;33291;46.222;26.460;2023-03-31T00:52:37;96094.91;;;3.35;69.44
47556;BME280;33291;46.222;26.460;2023-03-31T00:55:07;96084.94;;;3.31;69.19
47556;BME280;33291;46.222;26.460;2023-03-31T00:57:37;96080.22;;;3.37;69.36
47556;BME280;33291;46.222;26.460;2023-03-31T01:00:07;96083.50;;;3.40;70.58
47556;BME280;33291;46.222;26.460;2023-03-31T01:02:44;96081.84;;;3.38;70.54
47556;BME280;33291;46.222;26.460;2023-03-31T01:05:22;96075.06;;;3.37;70.86
47556;BME280;33291;46.222;26.460;2023-03-31T01:07:50;96065.88;;;3.33;71.42
47556;BME280;33291;46.222;26.460;2023-03-31T01:10:16;96059.41;;;3.41;71.12
47556;BME280;33291;46.222;26.460;2023-03-31T01:12:51;96036.34;;;3.26;70.59
47556;BME280;33291;46.222;26.460;2023-03-31T01:15:18;96047.56;;;3.38;70.77
47556;BME280;33291;46.222;26.460;2023-03-31T01:17:44;96048.19;;;3.42;71.00
47556;BME280;33291;46.222;26.460;2023-03-31T01:25:53;96035.91;;;3.45;71.93
47556;BME280;33291;46.222;26.460;2023-03-31T11:12:27;95650.69;;;9.50;67.16
47556;BME280;33291;46.222;26.460;2023-03-31T11:15:17;95650.25;;;9.54;66.35
47556;BME280;33291;46.222;26.460;2023-03-31T11:43:06;95617.50;;;10.12;64.05
47556;BME280;33291;46.222;26.460;2023-03-31T11:51:31;95604.84;;;10.18;64.02
47556;BME280;33291;46.222;26.460;2023-03-31T11:54:02;95596.38;;;10.16;63.07
47556;BME280;33291;46.222;26.460;2023-03-31T11:56:37;95595.41;;;10.17;63.86
47556;BME280;33291;46.222;26.460;2023-03-31T11:59:05;95590.19;;;10.08;63.44
47556;BME280;33291;46.222;26.460;2023-03-31T12:04:36;95611.22;;;10.31;63.64
47556;BME280;33291;46.222;26.460;2023-03-31T12:12:28;95618.75;;;10.35;62.68
47556;BME280;33291;46.222;26.460;2023-03-31T12:15:18;95629.31;;;10.33;63.33
47556;BME280;33291;46.222;26.460;2023-03-31T12:17:49;95609.81;;;10.37;63.25
47556;BME280;33291;46.222;26.460;2023-03-31T12:20:40;95607.38;;;10.36;63.01
47556;BME280;33291;46.222;26.460;2023-03-31T12:23:19;95598.38;;;10.30;63.77
47556;BME280;33291;46.222;26.460;2023-03-31T12:28:50;95610.13;;;10.34;63.15
47556;BME280;33291;46.222;26.460;2023-03-31T12:31:20;95612.19;;;10.30;63.44
47556;BME280;33291;46.222;26.460;2023-03-31T12:34:02;95581.59;;;10.16;63.14
47556;BME280;33291;46.222;26.460;2023-03-31T12:56:00;95608.25;;;10.69;62.47
47556;BME280;33291;46.222;26.460;2023-03-31T13:08:58;95599.63;;;10.77;61.56
47556;BME280;33291;46.222;26.460;2023-03-31T13:16:31;95584.47;;;10.80;61.64
47556;BME280;33291;46.222;26.460;2023-03-31T13:18:57;95574.38;;;10.77;61.35
47556;BME280;33291;46.222;26.460;2023-03-31T13:21:23;95579.59;;;10.77;61.58
47556;BME280;33291;46.222;26.460;2023-03-31T13:23:49;95573.06;;;10.73;61.94
47556;BME280;33291;46.222;26.460;2023-03-31T14:07:08;95543.16;;;12.29;56.43
47556;BME280;33291;46.222;26.460;2023-03-31T14:09:40;95542.25;;;12.45;56.11
47556;BME280;33291;46.222;26.460;2023-03-31T14:14:54;95548.03;;;12.55;54.67
47556;BME280;33291;46.222;26.460;2023-03-31T14:17:23;95541.91;;;12.48;54.38
47556;BME280;33291;46.222;26.460;2023-03-31T14:20:02;95540.44;;;12.46;55.11
47556;BME280;33291;46.222;26.460;2023-03-31T14:25:37;95547.50;;;12.60;54.85
47556;BME280;33291;46.222;26.460;2023-03-31T14:36:35;95553.28;;;12.78;53.55
47556;BME280;33291;46.222;26.460;2023-03-31T14:39:05;95541.75;;;12.65;54.14
47556;BME280;33291;46.222;26.460;2023-03-31T14:41:33;95551.53;;;12.71;53.93
47556;BME280;33291;46.222;26.460;2023-03-31T14:44:05;95552.22;;;12.65;53.64
47556;BME280;33291;46.222;26.460;2023-03-31T14:46:36;95568.66;;;12.50;53.71
47556;BME280;33291;46.222;26.460;2023-03-31T14:49:13;95553.34;;;12.39;54.01
47556;BME280;33291;46.222;26.460;2023-03-31T14:51:42;95567.94;;;12.33;54.35
47556;BME280;33291;46.222;26.460;2023-03-31T14:54:14;95566.53;;;12.22;53.79
47556;BME280;33291;46.222;26.460;2023-03-31T14:56:41;95555.78;;;12.17;54.16
47556;BME280;33291;46.222;26.460;2023-03-31T14:59:07;95564.13;;;12.13;54.18
47556;BME280;33291;46.222;26.460;2023-03-31T15:01:34;95560.41;;;12.07;54.11
47556;BME280;33291;46.222;26.460;2023-03-31T15:04:10;95561.09;;;12.01;54.03
47556;BME280;33291;46.222;26.460;2023-03-31T15:06:37;95569.41;;;11.96;54.06
47556;BME280;33291;46.222;26.460;2023-03-31T15:09:06;95561.16;;;11.84;54.28
47556;BME280;33291;46.222;26.460;2023-03-31T15:11:35;95571.72;;;11.91;54.23
47556;BME280;33291;46.222;26.460;2023-03-31T15:14:00;95545.38;;;11.69;54.26
47556;BME280;33291;46.222;26.460;2023-03-31T15:16:39;95569.19;;;11.66;54.66
47556;BME280;33291;46.222;26.460;2023-03-31T15:19:20;95562.97;;;11.67;55.22
47556;BME280;33291;46.222;26.460;2023-03-31T15:22:20;95562.72;;;11.46;54.91
47556;BME280;33291;46.222;26.460;2023-03-31T15:24:46;95586.03;;;11.55;54.98
47556;BME280;33291;46.222;26.460;2023-03-31T15:27:13;95576.91;;;11.51;55.41
47556;BME280;33291;46.222;26.460;2023-03-31T15:29:46;95586.03;;;11.47;55.97
47556;BME280;33291;46.222;26.460;2023-03-31T15:32:16;95583.25;;;11.49;55.89
47556;BME280;33291;46.222;26.460;2023-03-31T15:34:45;95588.97;;;11.44;55.67
47556;BME280;33291;46.222;26.460;2023-03-31T15:37:12;95607.22;;;11.44;56.16
47556;BME280;33291;46.222;26.460;2023-03-31T15:39:38;95581.84;;;11.30;55.66
47556;BME280;33291;46.222;26.460;2023-03-31T15:42:08;95590.47;;;11.30;56.01
47556;BME280;33291;46.222;26.460;2023-03-31T15:44:45;95588.19;;;11.27;56.42
47556;BME280;33291;46.222;26.460;2023-03-31T15:47:12;95598.13;;;11.32;56.60
47556;BME280;33291;46.222;26.460;2023-03-31T15:50:02;95585.25;;;11.30;56.45
47556;BME280;33291;46.222;26.460;2023-03-31T15:52:36;95590.00;;;11.27;56.82
47556;BME280;33291;46.222;26.460;2023-03-31T15:55:26;95589.50;;;11.23;56.58
47556;BME280;33291;46.222;26.460;2023-03-31T15:57:54;95580.22;;;11.12;56.87
47556;BME280;33291;46.222;26.460;2023-03-31T16:03:04;95590.31;;;11.15;57.35
47556;BME280;33291;46.222;26.460;2023-03-31T16:05:38;95587.56;;;11.09;57.75
47556;BME280;33291;46.222;26.460;2023-03-31T16:08:10;95588.22;;;11.02;57.49
47556;BME280;33291;46.222;26.460;2023-03-31T16:10:38;95588.41;;;11.01;57.45
47556;BME280;33291;46.222;26.460;2023-03-31T16:13:06;95599.13;;;11.06;58.12
47556;BME280;33291;46.222;26.460;2023-03-31T16:15:43;95590.31;;;10.99;59.29
47556;BME280;33291;46.222;26.460;2023-03-31T16:18:32;95588.38;;;10.93;58.66
47556;BME280;33291;46.222;26.460;2023-03-31T16:21:02;95595.22;;;10.94;58.43
47556;BME280;33291;46.222;26.460;2023-03-31T16:23:31;95598.63;;;10.94;58.48
47556;BME280;33291;46.222;26.460;2023-03-31T16:25:58;95595.72;;;10.89;59.07
47556;BME280;33291;46.222;26.460;2023-03-31T16:28:26;95591.81;;;10.85;59.26
47556;BME280;33291;46.222;26.460;2023-03-31T16:30:53;95577.81;;;10.70;59.26
47556;BME280;33291;46.222;26.460;2023-03-31T16:33:20;95594.91;;;10.80;59.41
47556;BME280;33291;46.222;26.460;2023-03-31T16:35:52;95590.66;;;10.71;59.87
47556;BME280;33291;46.222;26.460;2023-03-31T16:38:21;95596.19;;;10.68;60.07
47556;BME280;33291;46.222;26.460;2023-03-31T16:40:49;95596.84;;;10.62;60.37
47556;BME280;33291;46.222;26.460;2023-03-31T16:45:49;95583.78;;;10.45;62.71
47556;BME280;33291;46.222;26.460;2023-03-31T16:48:16;95600.03;;;10.31;65.77
47556;BME280;33291;46.222;26.460;2023-03-31T16:50:44;95587.59;;;10.17;65.47
47556;BME280;33291;46.222;26.460;2023-03-31T16:53:14;95587.91;;;10.05;65.28
47556;BME280;33291;46.222;26.460;2023-03-31T16:55:40;95584.78;;;9.93;65.16
47556;BME280;33291;46.222;26.460;2023-03-31T16:58:06;95592.06;;;9.90;66.13
47556;BME280;33291;46.222;26.460;2023-03-31T17:00:33;95603.09;;;9.84;66.57
47556;BME280;33291;46.222;26.460;2023-03-31T17:03:00;95592.31;;;9.70;67.49
47556;BME280;33291;46.222;26.460;2023-03-31T17:05:26;95593.25;;;9.61;67.31
47556;BME280;33291;46.222;26.460;2023-03-31T17:07:53;95590.56;;;9.45;68.05
47556;BME280;33291;46.222;26.460;2023-03-31T17:10:19;95589.53;;;9.37;68.25
47556;BME280;33291;46.222;26.460;2023-03-31T17:12:45;95587.66;;;9.21;69.46
47556;BME280;33291;46.222;26.460;2023-03-31T17:15:11;95606.28;;;9.17;71.18
47556;BME280;33291;46.222;26.460;2023-03-31T17:17:37;95585.41;;;9.00;70.98
47556;BME280;33291;46.222;26.460;2023-03-31T17:20:04;95591.19;;;8.94;70.58
47556;BME280;33291;46.222;26.460;2023-03-31T17:22:31;95602.09;;;8.98;71.00
47556;BME280;33291;46.222;26.460;2023-03-31T17:24:57;95593.53;;;8.79;72.22
47556;BME280;33291;46.222;26.460;2023-03-31T17:27:24;95606.44;;;8.71;73.39
47556;BME280;33291;46.222;26.460;2023-03-31T17:29:50;95596.03;;;8.53;73.99
47556;BME280;33291;46.222;26.460;2023-03-31T17:32:16;95601.44;;;8.42;74.82
47556;BME280;33291;46.222;26.460;2023-03-31T17:34:42;95599.88;;;8.31;75.10
47556;BME280;33291;46.222;26.460;2023-03-31T17:37:07;95596.72;;;8.27;74.96
47556;BME280;33291;46.222;26.460;2023-03-31T17:39:33;95593.84;;;8.30;74.94
47556;BME280;33291;46.222;26.460;2023-03-31T17:41:58;95590.53;;;8.20;74.96
47556;BME280;33291;46.222;26.460;2023-03-31T17:44:24;95603.25;;;8.13;75.36
47556;BME280;33291;46.222;26.460;2023-03-31T17:46:49;95600.56;;;8.05;75.78
47556;BME280;33291;46.222;26.460;2023-03-31T17:49:15;95618.19;;;8.01;76.15
47556;BME280;33291;46.222;26.460;2023-03-31T17:51:42;95605.84;;;7.86;76.28
47556;BME280;33291;46.222;26.460;2023-03-31T17:54:09;95617.59;;;7.80;77.00
47556;BME280;33291;46.222;26.460;2023-03-31T17:56:35;95625.00;;;7.75;77.17
47556;BME280;33291;46.222;26.460;2023-03-31T17:59:01;95615.63;;;7.64;77.15
47556;BME280;33291;46.222;26.460;2023-03-31T18:01:27;95619.47;;;7.60;77.18
47556;BME280;33291;46.222;26.460;2023-03-31T18:03:56;95623.28;;;7.56;77.50
47556;BME280;33291;46.222;26.460;2023-03-31T18:06:22;95630.53;;;7.52;77.81
47556;BME280;33291;46.222;26.460;2023-03-31T18:08:49;95630.81;;;7.49;77.62
47556;BME280;33291;46.222;26.460;2023-03-31T18:11:15;95614.22;;;7.32;77.58
47556;BME280;33291;46.222;26.460;2023-03-31T18:13:41;95630.69;;;7.41;77.47
47556;BME280;33291;46.222;26.460;2023-03-31T18:16:07;95634.13;;;7.32;77.89
47556;BME280;33291;46.222;26.460;2023-03-31T18:18:34;95645.31;;;7.22;78.59
47556;BME280;33291;46.222;26.460;2023-03-31T18:21:04;95611.44;;;6.96;78.57
47556;BME280;33291;46.222;26.460;2023-03-31T18:23:30;95633.66;;;6.99;79.22
47556;BME280;33291;46.222;26.460;2023-03-31T18:25:56;95624.50;;;6.94;79.07
47556;BME280;33291;46.222;26.460;2023-03-31T18:28:21;95629.28;;;6.89;79.30
47556;BME280;33291;46.222;26.460;2023-03-31T18:30:47;95618.41;;;6.76;79.32
47556;BME280;33291;46.222;26.460;2023-03-31T18:33:13;95639.50;;;6.81;79.17
47556;BME280;33291;46.222;26.460;2023-03-31T18:35:38;95643.44;;;6.75;79.17
47556;BME280;33291;46.222;26.460;2023-03-31T18:38:05;95650.00;;;6.80;79.38
47556;BME280;33291;46.222;26.460;2023-03-31T18:40:31;95648.09;;;6.72;79.51
47556;BME280;33291;46.222;26.460;2023-03-31T18:42:57;95649.56;;;6.65;79.60
47556;BME280;33291;46.222;26.460;2023-03-31T18:45:23;95657.34;;;6.65;79.26
47556;BME280;33291;46.222;26.460;2023-03-31T18:47:48;95667.69;;;6.65;79.75
47556;BME280;33291;46.222;26.460;2023-03-31T18:50:15;95660.06;;;6.53;79.47
47556;BME280;33291;46.222;26.460;2023-03-31T18:52:40;95648.59;;;6.46;79.81
47556;BME280;33291;46.222;26.460;2023-03-31T18:55:06;95648.59;;;6.46;79.68
47556;BME280;33291;46.222;26.460;2023-03-31T18:57:31;95662.75;;;6.42;79.82
47556;BME280;33291;46.222;26.460;2023-03-31T18:59:57;95652.94;;;6.36;80.45
47556;BME280;33291;46.222;26.460;2023-03-31T19:02:23;95658.78;;;6.28;81.04
47556;BME280;33291;46.222;26.460;2023-03-31T19:04:49;95652.38;;;6.22;81.21
47556;BME280;33291;46.222;26.460;2023-03-31T19:07:14;95649.09;;;6.20;81.30
47556;BME280;33291;46.222;26.460;2023-03-31T19:09:40;95651.00;;;6.18;80.91
47556;BME280;33291;46.222;26.460;2023-03-31T19:12:06;95650.84;;;6.10;81.39
47556;BME280;33291;46.222;26.460;2023-03-31T19:14:32;95639.94;;;5.97;81.92
47556;BME280;33291;46.222;26.460;2023-03-31T19:17:01;95648.72;;;5.94;82.03
47556;BME280;33291;46.222;26.460;2023-03-31T19:19:27;95651.97;;;5.86;82.41
47556;BME280;33291;46.222;26.460;2023-03-31T19:21:52;95640.63;;;5.78;82.61
47556;BME280;33291;46.222;26.460;2023-03-31T19:24:20;95631.63;;;5.72;82.26
47556;BME280;33291;46.222;26.460;2023-03-31T19:26:45;95652.50;;;5.80;82.37
47556;BME280;33291;46.222;26.460;2023-03-31T19:29:11;95616.75;;;5.55;82.76
47556;BME280;33291;46.222;26.460;2023-03-31T19:31:37;95642.09;;;5.70;83.07
47556;BME280;33291;46.222;26.460;2023-03-31T19:34:04;95624.78;;;5.61;82.58
47556;BME280;33291;46.222;26.460;2023-03-31T19:36:30;95633.25;;;5.63;83.05
47556;BME280;33291;46.222;26.460;2023-03-31T19:38:56;95645.06;;;5.66;82.87
47556;BME280;33291;46.222;26.460;2023-03-31T19:41:22;95645.59;;;5.60;83.32
47556;BME280;33291;46.222;26.460;2023-03-31T19:43:47;95644.47;;;5.52;83.56
47556;BME280;33291;46.222;26.460;2023-03-31T19:46:13;95636.16;;;5.49;83.43
47556;BME280;33291;46.222;26.460;2023-03-31T19:48:39;95638.31;;;5.44;83.84
47556;BME280;33291;46.222;26.460;2023-03-31T19:51:05;95640.06;;;5.43;83.54
47556;BME280;33291;46.222;26.460;2023-03-31T19:53:35;95647.94;;;5.42;83.76
47556;BME280;33291;46.222;26.460;2023-03-31T19:56:09;95631.72;;;5.30;84.06
47556;BME280;33291;46.222;26.460;2023-03-31T19:58:35;95628.00;;;5.23;84.44
47556;BME280;33291;46.222;26.460;2023-03-31T20:01:03;95635.63;;;5.24;84.53
47556;BME280;33291;46.222;26.460;2023-03-31T20:03:30;95633.44;;;5.20;84.72
47556;BME280;33291;46.222;26.460;2023-03-31T20:06:04;95627.25;;;5.11;85.45
47556;BME280;33291;46.222;26.460;2023-03-31T20:08:31;95610.59;;;4.94;85.96
47556;BME280;33291;46.222;26.460;2023-03-31T20:11:01;95629.28;;;5.07;86.20
47556;BME280;33291;46.222;26.460;2023-03-31T20:13:28;95629.53;;;5.04;86.03
47556;BME280;33291;46.222;26.460;2023-03-31T20:16:21;95622.72;;;5.03;86.48
47556;BME280;33291;46.222;26.460;2023-03-31T20:18:52;95608.50;;;4.88;86.74
47556;BME280;33291;46.222;26.460;2023-03-31T20:21:20;95623.16;;;4.87;87.81
47556;BME280;33291;46.222;26.460;2023-03-31T20:23:46;95620.56;;;4.87;87.75
47556;BME280;33291;46.222;26.460;2023-03-31T20:26:18;95610.88;;;4.79;87.84
47556;BME280;33291;46.222;26.460;2023-03-31T20:28:44;95616.78;;;4.70;88.85
47556;BME280;33291;46.222;26.460;2023-03-31T20:31:19;95621.25;;;4.68;90.76
47556;BME280;33291;46.222;26.460;2023-03-31T20:33:45;95619.38;;;4.70;90.49
47556;BME280;33291;46.222;26.460;2023-03-31T20:36:14;95610.94;;;4.68;90.55
47556;BME280;33291;46.222;26.460;2023-03-31T20:38:42;95607.78;;;4.65;89.63
47556;BME280;33291;46.222;26.460;2023-03-31T20:41:09;95608.72;;;4.63;90.12
47556;BME280;33291;46.222;26.460;2023-03-31T20:43:35;95597.31;;;4.45;90.79
47556;BME280;33291;46.222;26.460;2023-03-31T20:46:02;95600.47;;;4.49;91.11
47556;BME280;33291;46.222;26.460;2023-03-31T20:48:39;95611.09;;;4.55;91.30
47556;BME280;33291;46.222;26.460;2023-03-31T20:51:07;95621.03;;;4.60;91.79
47556;BME280;33291;46.222;26.460;2023-03-31T20:53:34;95603.94;;;4.59;92.14
47556;BME280;33291;46.222;26.460;2023-03-31T20:56:10;95600.91;;;4.54;90.82
47556;BME280;33291;46.222;26.460;2023-03-31T20:58:36;95592.97;;;4.45;91.46
47556;BME280;33291;46.222;26.460;2023-03-31T21:01:02;95596.50;;;4.44;91.98
47556;BME280;33291;46.222;26.460;2023-03-31T21:03:28;95567.97;;;4.25;92.55
47556;BME280;33291;46.222;26.460;2023-03-31T21:05:54;95589.25;;;4.38;92.64
47556;BME280;33291;46.222;26.460;2023-03-31T21:08:19;95588.88;;;4.43;92.26
47556;BME280;33291;46.222;26.460;2023-03-31T21:10:45;95580.56;;;4.39;92.86
47556;BME280;33291;46.222;26.460;2023-03-31T21:13:12;95562.44;;;4.30;93.07
47556;BME280;33291;46.222;26.460;2023-03-31T21:15:38;95571.78;;;4.42;92.27
47556;BME280;33291;46.222;26.460;2023-03-31T21:18:05;95590.16;;;4.49;91.96
47556;BME280;33291;46.222;26.460;2023-03-31T21:20:31;95573.91;;;4.37;92.00
47556;BME280;33291;46.222;26.460;2023-03-31T21:22:57;95578.25;;;4.36;91.38
47556;BME280;33291;46.222;26.460;2023-03-31T21:25:24;95576.34;;;4.38;91.50
47556;BME280;33291;46.222;26.460;2023-03-31T21:27:50;95566.53;;;4.32;91.24
47556;BME280;33291;46.222;26.460;2023-03-31T21:30:16;95572.63;;;4.31;91.17
47556;BME280;33291;46.222;26.460;2023-03-31T21:32:42;95583.66;;;4.22;91.27
47556;BME280;33291;46.222;26.460;2023-03-31T21:35:07;95585.69;;;4.18;91.38
47556;BME280;33291;46.222;26.460;2023-03-31T21:37:33;95586.97;;;4.13;91.81
47556;BME280;33291;46.222;26.460;2023-03-31T21:40:01;95576.91;;;4.09;91.83
47556;BME280;33291;46.222;26.460;2023-03-31T21:42:27;95570.84;;;4.11;92.28
47556;BME280;33291;46.222;26.460;2023-03-31T21:44:53;95564.75;;;4.12;92.10
47556;BME280;33291;46.222;26.460;2023-03-31T21:47:24;95568.00;;;4.14;92.37
47556;BME280;33291;46.222;26.460;2023-03-31T21:49:50;95557.63;;;4.04;92.08
47556;BME280;33291;46.222;26.460;2023-03-31T21:52:16;95562.66;;;4.05;92.09
47556;BME280;33291;46.222;26.460;2023-03-31T21:54:42;95554.00;;;3.95;92.70
47556;BME280;33291;46.222;26.460;2023-03-31T21:57:08;95545.56;;;3.93;93.32
47556;BME280;33291;46.222;26.460;2023-03-31T21:59:33;95549.41;;;3.99;93.22
47556;BME280;33291;46.222;26.460;2023-03-31T22:01:59;95550.22;;;3.99;93.26
47556;BME280;33291;46.222;26.460;2023-03-31T22:04:25;95532.56;;;3.95;93.32
47556;BME280;33291;46.222;26.460;2023-03-31T22:06:50;95547.91;;;3.96;93.80
47556;BME280;33291;46.222;26.460;2023-03-31T22:09:16;95550.16;;;3.89;93.25
47556;BME280;33291;46.222;26.460;2023-03-31T22:11:42;95543.94;;;3.92;93.36
47556;BME280;33291;46.222;26.460;2023-03-31T22:14:07;95564.31;;;3.84;93.61
47556;BME280;33291;46.222;26.460;2023-03-31T22:16:33;95539.88;;;3.78;94.39
47556;BME280;33291;46.222;26.460;2023-03-31T22:18:58;95546.53;;;3.81;93.67
47556;BME280;33291;46.222;26.460;2023-03-31T22:21:25;95551.84;;;3.68;95.48
47556;BME280;33291;46.222;26.460;2023-03-31T22:23:54;95542.09;;;3.71;94.96
47556;BME280;33291;46.222;26.460;2023-03-31T22:26:21;95548.19;;;3.70;95.36
47556;BME280;33291;46.222;26.460;2023-03-31T22:28:47;95549.38;;;3.66;96.68
47556;BME280;33291;46.222;26.460;2023-03-31T22:31:13;95521.78;;;3.57;95.95
47556;BME280;33291;46.222;26.460;2023-03-31T22:33:38;95530.63;;;3.64;96.65
47556;BME280;33291;46.222;26.460;2023-03-31T22:36:04;95535.78;;;3.64;96.32
47556;BME280;33291;46.222;26.460;2023-03-31T22:38:30;95541.53;;;3.68;96.17
47556;BME280;33291;46.222;26.460;2023-03-31T22:40:55;95554.28;;;3.69;96.18
47556;BME280;33291;46.222;26.460;2023-03-31T22:43:21;95554.28;;;3.69;96.11
47556;BME280;33291;46.222;26.460;2023-03-31T22:45:47;95550.88;;;3.69;95.63
47556;BME280;33291;46.222;26.460;2023-03-31T22:48:12;95545.53;;;3.61;95.45
47556;BME280;33291;46.222;26.460;2023-03-31T22:50:39;95542.03;;;3.62;95.38
47556;BME280;33291;46.222;26.460;2023-03-31T22:53:05;95546.09;;;3.64;95.18
47556;BME280;33291;46.222;26.460;2023-03-31T22:55:32;95546.94;;;3.65;95.21
47556;BME280;33291;46.222;26.460;2023-03-31T22:57:58;95553.13;;;3.62;94.99
47556;BME280;33291;46.222;26.460;2023-03-31T23:00:23;95550.91;;;3.58;95.40
47556;BME280;33291;46.222;26.460;2023-03-31T23:02:48;95533.38;;;3.51;95.41
47556;BME280;33291;46.222;26.460;2023-03-31T23:05:14;95531.16;;;3.47;97.70
47556;BME280;33291;46.222;26.460;2023-03-31T23:07:40;95525.19;;;3.46;97.44
47556;BME280;33291;46.222;26.460;2023-03-31T23:10:06;95528.56;;;3.47;97.69
47556;BME280;33291;46.222;26.460;2023-03-31T23:12:32;95517.09;;;3.40;97.01
47556;BME280;33291;46.222;26.460;2023-03-31T23:14:57;95530.78;;;3.51;96.60
47556;BME280;33291;46.222;26.460;2023-03-31T23:17:23;95515.25;;;3.42;96.64
47556;BME280;33291;46.222;26.460;2023-03-31T23:19:48;95502.50;;;3.29;96.82
47556;BME280;33291;46.222;26.460;2023-03-31T23:22:14;95527.28;;;3.41;96.83
47556;BME280;33291;46.222;26.460;2023-03-31T23:24:41;95519.56;;;3.41;97.06
47556;BME280;33291;46.222;26.460;2023-03-31T23:27:06;95489.06;;;3.25;97.24
47556;BME280;33291;46.222;26.460;2023-03-31T23:29:32;95497.22;;;3.30;98.18
47556;BME280;33291;46.222;26.460;2023-03-31T23:31:58;95510.09;;;3.30;99.15
47556;BME280;33291;46.222;26.460;2023-03-31T23:34:23;95511.03;;;3.29;99.05
47556;BME280;33291;46.222;26.460;2023-03-31T23:36:49;95498.97;;;3.18;99.91
47556;BME280;33291;46.222;26.460;2023-03-31T23:39:14;95510.44;;;3.37;100.00
47556;BME280;33291;46.222;26.460;2023-03-31T23:41:40;95506.81;;;3.40;99.86
47556;BME280;33291;46.222;26.460;2023-03-31T23:44:05;95497.44;;;3.38;100.00
47556;BME280;33291;46.222;26.460;2023-03-31T23:46:31;95499.88;;;3.40;99.85
47556;BME280;33291;46.222;26.460;2023-03-31T23:48:58;95496.50;;;3.40;99.49
47556;BME280;33291;46.222;26.460;2023-03-31T23:51:23;95499.81;;;3.42;99.21
47556;BME280;33291;46.222;26.460;2023-03-31T23:53:49;95510.31;;;3.38;99.86
47556;BME280;33291;46.222;26.460;2023-03-31T23:56:15;95488.34;;;3.34;99.84
47556;BME280;33291;46.222;26.460;2023-03-31T23:58:41;95478.03;;;3.34;99.97
